Spirit Falls, Wisconsin
Current Conditions -  °F | °C
As of 11:15 PM on Saturday 25 Oct 2014 (Local Time) from KTKV Reporting Station
Clear Clear  
Wind Chill: 40°   Ceiling: Unl
Heat Index: 42°   Visibility: 10mi
Dew Point: 24°   Wind: 5mph
Humidity: 48%   Direction: 290°WNW
Pressure: 29.96"   Gusts: NA
Location:  45.6083°N, 89.9711°W
Report Text: KTKV 260415Z AUTO 29004KT 10SM CLR 06/M04 A2996 RMK AO2 T00581045
Loading
Personal Weather Stations






























Interactive Weather Map
Tropical Storm Tracking
New forecast layout! Learn more

10-Day Weather Forecast

Advertisements
Track Severe Weather on mobile